• Join FlightAware (Why Join?)
  • Login
  • US Flag 
08:06AM EST


 

Airport Tracker/Info


-or-


 

Live Flight TrackerFlight Track Log ✈ AWE1940 ✈ 09-Aug-2013 ✈ KIAH - KCLT

Flight Track Log - Related Links

Times and Time Zones

All times are in EDT time to prevent confusion due to time zone crossing. See the AWE1940 flight status page for this flight to view local times or setup timezone preferences in your user account.

Time Position Orientation Groundspeed Altitude Reporting Facility
EDT Latitude Longitude Course Direction KTS MPH feet Rate Location/Type
06:35PM 29.9572 -95.3417 30° Northeast 198 228 900  Level Houston Center
06:36PM 29.9656 -95.2947 78° East 220 253 2,000 1,500 Climbing Houston Center
06:37PM 29.9953 -95.2794 24° Northeast 242 278 3,100 1,260 Climbing Houston Center
06:38PM 30.2611 -95.1038 30° Northeast  Level FlightAware Approximate
06:38PM 30.0625 -95.2425 25° Northeast 257 296 4,100  Level Houston Center
06:39PM 30.3579 -95.0337 35° Northeast  Level FlightAware Approximate
06:39PM 30.1311 -95.2042 26° Northeast 267 307 4,100  Level Houston Center
06:40PM 30.4478 -94.9522 41° Northeast  Level FlightAware Approximate
06:40PM 30.1967 -95.1589 31° Northeast 273 314 6,500  Level Houston Center
06:41PM 30.5465 -94.8857 30° Northeast  Level FlightAware Approximate
06:41PM 30.2744 -95.1011 33° Northeast 275 316 9,600  Level Houston Center
06:42PM 30.3494 -95.0492 31° Northeast 304 350 10,500 960 Climbing Houston Center
06:43PM 30.4347 -94.9847 33° Northeast 358 412 11,600 1,620 Climbing Houston Center
06:44PM 30.5278 -94.9122 34° Northeast 391 450 13,900 2,040 Climbing Houston Center
06:45PM 30.6222 -94.8403 33° Northeast 404 465 15,900 1,920 Climbing Houston Center
06:46PM 30.7394 -94.7492 34° Northeast 421 484 17,900 1,620 Climbing Houston Center
06:47PM 30.8408 -94.6714 33° Northeast 434 499 19,300 1,440 Climbing Houston Center
06:48PM 30.9444 -94.5911 34° Northeast 448 516 20,900 1,260 Climbing Houston Center
06:49PM 31.0500 -94.5100 33° Northeast 456 525 22,000 960 Climbing Houston Center
06:50PM 31.1569 -94.4258 34° Northeast 466 536 23,000 840 Climbing Houston Center
06:51PM 31.2889 -94.3244 33° Northeast 476 548 23,800 900 Climbing Houston Center
06:52PM 31.4003 -94.2392 33° Northeast 481 554 24,900 1,260 Climbing Houston Center
06:53PM 31.5108 -94.1519 34° Northeast 481 554 26,500 1,260 Climbing Houston Center
06:54PM 31.6197 -94.0667 34° Northeast 474 545 27,600 1,140 Climbing Houston Center
06:55PM 31.7278 -93.9822 34° Northeast 469 540 28,900 660 Climbing Houston Center
06:56PM 31.8297 -93.8786 41° Northeast 470 541 29,000  Climbing Houston Center
06:57PM 31.8928 -93.7464 61° Northeast 464 534 29,000  Level Houston Center
06:58PM 31.9547 -93.6114 62° Northeast 467 537 29,000  Level Houston Center
06:59PM 32.0303 -93.4497 61° Northeast 469 540 29,000  Level Houston Center
07:00PM 32.0936 -93.3133 61° Northeast 472 543 29,000  Level Houston Center
07:03PM 32.2344 -93.0100 61° Northeast 469 540 29,000  Level Fort Worth Center
07:04PM 32.2964 -92.8719 62° Northeast 469 540 29,000  Level Fort Worth Center
07:05PM 32.3603 -92.7333 61° Northeast 469 540 29,000  Level Fort Worth Center
07:06PM 32.4256 -92.5872 62° Northeast 474 545 29,000  Level Fort Worth Center
07:08PM 32.5461 -92.3164 62° Northeast 502 578 29,000  Level Memphis Center
07:09PM 32.6086 -92.1772 62° Northeast 486 559 29,000  Level Memphis Center
07:10PM 32.6733 -92.0381 61° Northeast 479 551 29,000  Level Memphis Center
07:11PM 32.7378 -91.8861 63° Northeast 466 536 29,000  Level Memphis Center
07:12PM 32.8022 -91.7414 62° Northeast 466 536 29,000  Level Memphis Center
07:13PM 32.8642 -91.6014 62° Northeast 471 542 29,000  Level Memphis Center
07:14PM 32.9258 -91.4636 62° Northeast 471 542 29,000  Level Memphis Center
07:15PM 32.9897 -91.3208 62° Northeast 471 542 29,000  Level Memphis Center
07:16PM 33.0472 -91.1800 64° Northeast 471 542 29,000  Level Memphis Center
07:17PM 33.1086 -91.0392 62° Northeast 471 542 29,000  Level Memphis Center
07:18PM 33.1719 -90.8958 62° Northeast 471 542 29,000  Level Memphis Center
07:19PM 33.2328 -90.7547 63° Northeast 471 542 29,000  Level Memphis Center
07:20PM 33.2939 -90.6133 63° Northeast 471 542 29,000  Level Memphis Center
07:21PM 33.3544 -90.4717 63° Northeast 471 542 29,000  Level Memphis Center
07:22PM 33.4150 -90.3322 62° Northeast 471 542 29,000  Level Memphis Center
07:23PM 33.4756 -90.1928 62° Northeast 471 542 29,000  Level Memphis Center
07:24PM 33.5317 -90.0556 64° Northeast 466 536 29,000  Level Memphis Center
07:25PM 33.5897 -89.9208 63° Northeast 461 531 29,000  Level Memphis Center
07:26PM 33.6456 -89.7858 64° Northeast 456 525 29,000  Level Memphis Center
07:27PM 33.7031 -89.6481 63° Northeast 451 519 29,000  Level Memphis Center
07:28PM 33.7608 -89.5153 62° Northeast 451 519 29,000  Level Memphis Center
07:29PM 33.8161 -89.3797 64° Northeast 451 519 29,000  Level Memphis Center
07:30PM 33.8650 -89.2489 66° East 451 519 29,000  Level Memphis Center
07:31PM 33.9242 -89.1081 63° Northeast 462 532 29,000  Level Memphis Center
07:32PM 33.9811 -88.9644 64° Northeast 467 537 29,000  Level Memphis Center
07:33PM 34.0439 -88.8081 64° Northeast 467 537 29,000  Level Memphis Center
07:34PM 34.1031 -88.6839 60° Northeast 467 537 29,000  Level Memphis Center
07:35PM 34.1931 -88.5667 47° Northeast 473 544 29,000  Level Memphis Center
07:36PM 34.2894 -88.4492 45° Northeast 473 544 29,000  Level Memphis Center
07:37PM 34.3814 -88.3336 46° Northeast 473 544 29,000  Level Memphis Center
07:38PM 34.4736 -88.2181 46° Northeast 478 550 29,000  Level Memphis Center
07:39PM 34.5714 -88.0872 48° Northeast 477 549 29,000  Level Memphis Center
07:40PM 34.6314 -87.9467 63° Northeast 465 535 29,000  Level Memphis Center
07:41PM 34.6786 -87.8039 68° East 454 522 29,000  Level Memphis Center
07:42PM 34.7253 -87.6533 69° East 466 536 29,000  Level Memphis Center
07:43PM 34.7686 -87.5358 66° East 472 543 29,000  Level Memphis Center
07:45PM 34.8900 -87.1611 68° East 478 550 29,000  Level Atlanta Center
07:46PM 34.9394 -87.0133 68° East 473 544 29,000  Level Atlanta Center
07:47PM 34.9911 -86.8606 68° East 473 544 29,000  Level Atlanta Center
07:48PM 35.0383 -86.7075 69° East 473 544 29,000  Level Atlanta Center
07:49PM 35.0875 -86.5517 69° East 473 544 29,000  Level Atlanta Center
07:50PM 35.1386 -86.3958 68° East 479 551 29,000  Level Atlanta Center
07:51PM 35.1856 -86.2369 70° East 485 558 29,000  Level Atlanta Center
07:52PM 35.2339 -86.0806 69° East 485 558 29,000  Level Atlanta Center
07:53PM 35.2867 -85.9192 68° East 491 565 29,000  Level Atlanta Center
07:54PM 35.3325 -85.7800 68° East 491 565 29,000  Level Atlanta Center
07:55PM 35.3806 -85.6231 69° East 491 565 29,000  Level Atlanta Center
07:56PM 35.4306 -85.4661 69° East 491 565 29,000  Level Atlanta Center
07:57PM 35.4803 -85.3064 69° East 491 565 29,000  Level Atlanta Center
07:58PM 35.5275 -85.1461 70° East 491 565 29,000  Level Atlanta Center
07:59PM 35.5750 -84.9861 70° East 491 565 29,000  Level Atlanta Center
08:00PM 35.6239 -84.8256 69° East 491 565 29,000  Level Atlanta Center
08:01PM 35.6708 -84.6625 70° East 491 565 29,000  Level Atlanta Center
08:02PM 35.7194 -84.5069 69° East 491 565 29,000  Level Atlanta Center
08:03PM 35.7742 -84.3281 69° East 491 565 29,000  Level Atlanta Center
08:04PM 35.8225 -84.1667 70° East 491 565 29,000  Level Atlanta Center
08:05PM 35.8497 -84.0003 79° East 491 565 29,000  Level Atlanta Center
08:06PM 35.8642 -83.8311 84° East 491 565 29,000  Level Atlanta Center
08:07PM 35.8803 -83.6619 83° East 491 565 29,000  Level Atlanta Center
08:08PM 35.8922 -83.4903 85° East 491 565 29,000  Level Atlanta Center
08:09PM 35.8892 -83.3186 91° East 496 571 29,000 -240 Level Atlanta Center
08:10PM 35.8881 -83.1519 90° East 496 571 28,600 -720 Descending Atlanta Center
08:11PM 35.8828 -82.9828 92° East 496 571 27,600 -960 Descending Atlanta Center
08:12PM 35.8789 -82.8111 92° East 496 571 26,700 -960 Descending Atlanta Center
08:13PM 35.8772 -82.6419 91° East 496 571 25,700 -1,020 Descending Atlanta Center
08:14PM 35.8731 -82.4703 92° East 496 571 24,700 -1,500 Descending Atlanta Center
08:15PM 35.8728 -82.3039 90° East 491 565 22,700 -2,400 Descending Atlanta Center
08:16PM 35.8458 -82.1661 104° East 478 550 19,900 -2,700 Descending Atlanta Center
08:17PM 35.7894 -82.0317 117° Southeast 449 517 17,400 -3,120 Descending Atlanta Center
08:18PM 35.7503 -81.9356 117° Southeast 434 499 15,000 -2,760 Descending Atlanta Center
08:19PM 35.6828 -81.7711 117° Southeast 420 483 11,900 -1,740 Descending Atlanta Center
08:20PM 35.6367 -81.6547 116° Southeast 393 452 10,900 -420 Descending Atlanta Center
08:21PM 35.5758 -81.5364 122° Southeast 300 345 11,000 -360 Climbing Atlanta Center
08:22PM 35.5472 -81.4556 113° Southeast 309 356 10,200 -1,320 Descending Atlanta Center
08:23PM 35.5158 -81.3572 111° Southeast 304 350 8,600 -1,500 Descending Atlanta Center
08:24PM 35.4844 -81.2639 112° Southeast 299 344 7,300 -1,440 Descending Atlanta Center
08:24PM 35.4844 -81.2639 112° Southeast 296 341 7,200 -1,740 Descending Atlanta Center
08:25PM 35.4533 -81.1731 113° Southeast 293 337 5,600 -1,500 Descending Atlanta Center
08:26PM 35.4239 -81.0825 112° Southeast 287 330 4,200 -900 Descending Atlanta Center
08:27PM 35.3928 -80.9969 114° Southeast 281 323 3,900 -480 Descending Atlanta Center
08:28PM 35.3378 -80.9761 163° South 160 184 3,200 -960 Descending Atlanta Center
08:29PM 35.3025 -80.9772 181° South 144 166 2,100 -1,020 Descending Atlanta Center
08:30PM 35.2586 -80.9739 176° South 141 162 1,300 -720 Descending Atlanta Center